Time;durP1;ratioP1;P1;durP2;ratioP2;P2;SDS_P1;SDS_P2;PMS_P1;PMS_P2;Temp;Humidity;BMP_temperature;BMP_pressure;BME280_temperature;BME280_humidity;BME280_pressure;Samples;Min_cycle;Max_cycle;Signal;HPM_P1;HPM_P2
2023/07/02 00:01:52;;;;;;;7.07;5.17;;;17.50;99.90;;;;;;5022833;28;20211;-56
2023/07/02 00:04:19;;;;;;;4.73;4.53;;;17.50;99.90;;;;;;5007375;28;20199;-56
2023/07/02 00:06:46;;;;;;;4.93;4.53;;;17.50;99.90;;;;;;5021061;28;20230;-57
2023/07/02 00:09:14;;;;;;;6.33;5.73;;;17.50;99.90;;;;;;5007308;28;20270;-57
2023/07/02 00:11:43;;;;;;;5.17;4.80;;;17.50;99.90;;;;;;5008606;28;20249;-57
2023/07/02 00:14:11;;;;;;;5.07;4.73;;;17.50;99.90;;;;;;5013319;28;20199;-57
2023/07/02 00:16:40;;;;;;;6.07;4.77;;;17.50;99.90;;;;;;5021928;28;20218;-56
2023/07/02 00:19:07;;;;;;;5.47;5.07;;;17.50;99.90;;;;;;5021361;28;20650;-56
2023/07/02 00:21:37;;;;;;;5.00;4.70;;;17.50;99.90;;;;;;5009052;28;20282;-56
2023/07/02 00:24:04;;;;;;;4.90;4.50;;;17.50;99.90;;;;;;5017986;28;20226;-58
2023/07/02 00:26:31;;;;;;;5.93;5.20;;;17.50;99.90;;;;;;5017723;28;20273;-57
2023/07/02 00:28:59;;;;;;;6.53;6.07;;;17.50;99.90;;;;;;5020166;28;20203;-56
2023/07/02 00:31:26;;;;;;;6.50;5.23;;;17.60;99.90;;;;;;5020888;28;20743;-57
2023/07/02 00:33:53;;;;;;;5.80;5.37;;;17.50;99.90;;;;;;5018543;28;20574;-57
2023/07/02 00:36:20;;;;;;;5.80;5.30;;;17.40;99.90;;;;;;5009443;28;20250;-57
2023/07/02 00:38:48;;;;;;;5.43;5.03;;;17.40;99.90;;;;;;5022313;28;20252;-58
2023/07/02 00:41:16;;;;;;;5.47;5.07;;;17.40;99.90;;;;;;5019069;28;20255;-57
2023/07/02 00:43:44;;;;;;;5.73;5.10;;;17.40;99.90;;;;;;5013122;28;20662;-57
2023/07/02 00:46:17;;;;;;;5.77;5.27;;;17.40;99.90;;;;;;5019047;28;20745;-56
2023/07/02 00:48:44;;;;;;;4.93;4.67;;;17.40;99.90;;;;;;5029767;28;20652;-57
2023/07/02 00:51:14;;;;;;;5.97;5.47;;;17.40;99.90;;;;;;5023496;28;20581;-56
2023/07/02 00:53:41;;;;;;;4.20;3.90;;;17.40;99.90;;;;;;5008441;28;20203;-57
2023/07/02 00:56:08;;;;;;;5.00;4.60;;;17.40;99.90;;;;;;5019322;28;20317;-57
2023/07/02 00:58:39;;;;;;;5.00;4.60;;;17.40;99.90;;;;;;5014580;28;20227;-57
2023/07/02 01:01:07;;;;;;;4.27;3.87;;;17.40;99.90;;;;;;5023128;28;20194;-57
2023/07/02 01:03:37;;;;;;;3.80;3.60;;;17.50;99.90;;;;;;5023757;28;20206;-57
2023/07/02 01:06:04;;;;;;;4.33;3.97;;;17.40;99.90;;;;;;5019686;28;20274;-56
2023/07/02 01:08:31;;;;;;;3.83;3.63;;;17.50;99.90;;;;;;5019740;28;20273;-57
2023/07/02 01:10:59;;;;;;;4.03;3.57;;;17.50;99.90;;;;;;5015064;28;20205;-57
2023/07/02 01:13:27;;;;;;;3.80;3.50;;;17.50;99.90;;;;;;5019639;28;20203;-57
2023/07/02 01:15:54;;;;;;;4.33;4.03;;;17.50;99.90;;;;;;5025795;28;20223;-58
2023/07/02 01:18:22;;;;;;;4.40;4.00;;;17.50;99.90;;;;;;5019380;28;20210;-57
2023/07/02 01:20:50;;;;;;;3.90;3.60;;;17.60;99.90;;;;;;5025648;28;20202;-58
2023/07/02 01:23:17;;;;;;;3.83;3.63;;;17.60;99.90;;;;;;5025229;28;20672;-57
2023/07/02 01:25:45;;;;;;;5.50;5.07;;;17.60;99.90;;;;;;5013685;28;20697;-57
2023/07/02 01:28:13;;;;;;;4.57;4.27;;;17.60;99.90;;;;;;5006901;28;20624;-56
2023/07/02 01:30:41;;;;;;;4.80;4.50;;;17.60;99.90;;;;;;5010759;28;20204;-56
2023/07/02 01:33:08;;;;;;;5.47;5.07;;;17.60;99.90;;;;;;5020201;28;20191;-58
2023/07/02 01:35:35;;;;;;;5.23;4.90;;;17.60;99.90;;;;;;5017455;28;20214;-57
2023/07/02 01:38:03;;;;;;;4.83;4.53;;;17.60;99.90;;;;;;5023622;28;20669;-57
2023/07/02 01:40:30;;;;;;;4.10;3.90;;;17.50;99.90;;;;;;5022591;28;20257;-57
2023/07/02 01:42:57;;;;;;;4.77;4.37;;;17.50;99.90;;;;;;5015778;28;20238;-57
2023/07/02 01:45:25;;;;;;;4.87;4.47;;;17.50;99.90;;;;;;5015135;28;20218;-57
2023/07/02 01:47:52;;;;;;;5.13;4.27;;;17.50;99.90;;;;;;5019340;28;20203;-58
2023/07/02 01:50:19;;;;;;;4.13;3.83;;;17.50;99.90;;;;;;5022763;28;20202;-57
2023/07/02 01:52:46;;;;;;;4.20;3.90;;;17.60;99.90;;;;;;5023388;28;20198;-57
2023/07/02 01:55:14;;;;;;;4.23;4.03;;;17.70;99.90;;;;;;5027277;28;20623;-57
2023/07/02 01:57:41;;;;;;;4.00;3.73;;;17.80;99.90;;;;;;5018294;28;20207;-57
2023/07/02 02:00:09;;;;;;;3.90;3.67;;;17.80;99.90;;;;;;5002763;28;20814;-57
2023/07/02 02:02:36;;;;;;;3.93;3.63;;;17.80;99.90;;;;;;5015168;28;20595;-58
2023/07/02 02:05:04;;;;;;;3.53;3.33;;;17.80;99.90;;;;;;5019631;28;20218;-56
2023/07/02 02:07:30;;;;;;;3.90;3.77;;;17.90;99.90;;;;;;5015736;28;20372;-58
2023/07/02 02:09:57;;;;;;;4.70;4.43;;;17.80;99.90;;;;;;5016262;28;20622;-57
2023/07/02 02:12:28;;;;;;;3.53;3.23;;;17.70;99.90;;;;;;5022893;28;20203;-58
2023/07/02 02:14:55;;;;;;;4.20;3.87;;;17.80;99.90;;;;;;5015141;28;20652;-57
2023/07/02 02:17:23;;;;;;;3.37;3.17;;;17.70;99.90;;;;;;5004455;28;20260;-56
2023/07/02 02:19:50;;;;;;;3.67;3.47;;;17.70;99.90;;;;;;5010644;28;20207;-58
2023/07/02 02:22:17;;;;;;;3.73;3.50;;;17.60;99.90;;;;;;5022793;28;20202;-57
2023/07/02 02:24:44;;;;;;;4.40;4.10;;;17.60;99.90;;;;;;5027856;28;20252;-58
2023/07/02 02:27:11;;;;;;;3.73;3.43;;;17.50;99.90;;;;;;5022191;28;20226;-58
2023/07/02 02:29:39;;;;;;;3.90;3.67;;;17.40;99.90;;;;;;5017352;28;20195;-57
2023/07/02 02:32:07;;;;;;;4.57;4.20;;;17.30;99.90;;;;;;5017246;28;20203;-56
2023/07/02 02:34:34;;;;;;;4.10;3.80;;;17.30;99.90;;;;;;5008795;28;20631;-58
2023/07/02 02:37:01;;;;;;;3.73;3.50;;;17.30;99.90;;;;;;5021804;28;20219;-58
2023/07/02 02:39:28;;;;;;;3.47;3.37;;;17.20;99.90;;;;;;5028295;28;20231;-58
2023/07/02 02:41:55;;;;;;;3.47;3.23;;;17.20;99.90;;;;;;5019445;28;20573;-57
2023/07/02 02:44:22;;;;;;;4.43;4.07;;;17.10;99.90;;;;;;5021952;28;20202;-57
2023/07/02 02:46:50;;;;;;;4.23;4.03;;;17.10;99.90;;;;;;5020560;28;20273;-57
2023/07/02 02:49:17;;;;;;;4.33;3.97;;;17.20;99.90;;;;;;5013917;28;20202;-57
2023/07/02 02:51:44;;;;;;;4.70;4.40;;;17.10;99.90;;;;;;5013729;28;20637;-57
2023/07/02 02:54:11;;;;;;;5.60;5.03;;;17.10;99.90;;;;;;5018766;28;20203;-57
2023/07/02 02:56:38;;;;;;;5.67;4.90;;;17.00;99.90;;;;;;5017989;28;20218;-58
2023/07/02 02:59:05;;;;;;;5.30;4.97;;;17.00;99.90;;;;;;5018393;28;20257;-57
2023/07/02 03:01:32;;;;;;;7.70;5.00;;;17.00;99.90;;;;;;5017843;28;20740;-57
2023/07/02 03:04:00;;;;;;;5.67;5.17;;;17.00;99.90;;;;;;5018512;28;20207;-57
2023/07/02 03:06:27;;;;;;;5.00;4.70;;;17.10;99.90;;;;;;5006748;28;20226;-57
2023/07/02 03:08:54;;;;;;;6.00;5.60;;;17.10;99.90;;;;;;5003533;28;20226;-58
2023/07/02 03:11:21;;;;;;;5.13;4.80;;;17.10;99.90;;;;;;5018397;28;20203;-56
2023/07/02 03:13:48;;;;;;;6.10;5.70;;;17.10;99.90;;;;;;5011890;28;20198;-57
2023/07/02 03:16:15;;;;;;;6.27;5.70;;;17.10;99.90;;;;;;5014436;28;20218;-56
2023/07/02 03:18:42;;;;;;;5.47;5.13;;;17.00;99.90;;;;;;5021273;28;20203;-57
2023/07/02 03:21:10;;;;;;;6.50;6.10;;;16.90;99.90;;;;;;5018812;28;20204;-57
2023/07/02 03:23:37;;;;;;;6.50;5.87;;;16.90;99.90;;;;;;5022826;28;20214;-56
2023/07/02 03:26:04;;;;;;;6.60;6.20;;;16.90;99.90;;;;;;5007151;28;20536;-57
2023/07/02 03:28:33;;;;;;;6.20;5.53;;;16.90;99.90;;;;;;5022293;28;20207;-56
2023/07/02 03:31:00;;;;;;;6.67;6.07;;;16.90;99.90;;;;;;5021099;28;20202;-56
2023/07/02 03:33:27;;;;;;;6.67;6.07;;;16.90;99.90;;;;;;5024272;28;20203;-57
2023/07/02 03:35:54;;;;;;;4.60;4.40;;;16.80;99.90;;;;;;4998713;28;20278;-56
2023/07/02 03:38:23;;;;;;;4.03;3.90;;;16.80;99.90;;;;;;5010970;28;20254;-57
2023/07/02 03:40:49;;;;;;;4.07;3.87;;;16.90;99.90;;;;;;5013221;28;20619;-57
2023/07/02 03:43:16;;;;;;;5.00;4.70;;;16.90;99.90;;;;;;5034063;28;20198;-56
2023/07/02 03:45:44;;;;;;;4.97;4.67;;;16.90;99.90;;;;;;5019035;28;20702;-57
2023/07/02 03:48:10;;;;;;;5.23;4.93;;;16.90;99.90;;;;;;5014487;28;20294;-57
2023/07/02 03:50:37;;;;;;;5.40;5.10;;;16.90;99.90;;;;;;5000610;28;20199;-57
2023/07/02 03:53:04;;;;;;;5.10;4.80;;;16.90;99.90;;;;;;5011393;28;20204;-57
2023/07/02 03:55:33;;;;;;;4.10;3.90;;;16.90;99.90;;;;;;5018879;28;20665;-58
2023/07/02 03:57:59;;;;;;;4.20;4.00;;;16.90;99.90;;;;;;5033173;28;20199;-57
2023/07/02 04:00:26;;;;;;;4.33;4.13;;;16.80;99.90;;;;;;5033917;28;20236;-57
2023/07/02 04:02:53;;;;;;;3.80;3.60;;;16.80;99.90;;;;;;5033877;28;20276;-56
2023/07/02 04:05:21;;;;;;;4.33;4.03;;;16.80;99.90;;;;;;5021823;28;20249;-58
2023/07/02 04:07:48;;;;;;;3.40;3.30;;;16.90;99.90;;;;;;5000769;28;20238;-55
2023/07/02 04:10:15;;;;;;;4.30;4.00;;;16.80;99.90;;;;;;4994476;28;20218;-55
2023/07/02 04:12:44;;;;;;;4.17;3.87;;;16.90;99.90;;;;;;4994414;28;20609;-55
2023/07/02 04:15:11;;;;;;;3.40;3.20;;;16.90;99.90;;;;;;4994280;28;20733;-55
2023/07/02 04:17:38;;;;;;;3.30;3.10;;;16.90;99.90;;;;;;4994216;28;20204;-56
2023/07/02 04:20:07;;;;;;;3.33;3.13;;;16.90;99.90;;;;;;5025172;28;20264;-55
2023/07/02 04:22:37;;;;;;;4.00;3.70;;;16.90;99.90;;;;;;5033167;28;20289;-56
2023/07/02 04:25:05;;;;;;;4.40;4.10;;;16.90;99.90;;;;;;4995895;28;20278;-55
2023/07/02 04:27:32;;;;;;;3.83;3.53;;;16.90;99.90;;;;;;5049010;23;20785;-59
2023/07/02 04:30:00;;;;;;;4.70;4.40;;;16.90;99.90;;;;;;5032321;28;20202;-60
2023/07/02 04:32:30;;;;;;;3.93;3.53;;;16.90;99.90;;;;;;5030586;28;20202;-60
2023/07/02 04:34:58;;;;;;;3.87;3.57;;;16.90;99.90;;;;;;5030599;28;20198;-60
2023/07/02 04:37:25;;;;;;;3.93;3.77;;;16.90;99.90;;;;;;5035947;28;20210;-60
2023/07/02 04:39:52;;;;;;;3.43;3.27;;;16.90;99.90;;;;;;5051891;28;20271;-60
2023/07/02 04:42:19;;;;;;;3.80;3.60;;;16.90;99.90;;;;;;5012160;28;20207;-60
2023/07/02 04:44:46;;;;;;;5.47;3.67;;;16.90;99.90;;;;;;5017364;28;20268;-59
2023/07/02 04:47:14;;;;;;;4.90;4.50;;;16.90;99.90;;;;;;5031823;28;20260;-60
2023/07/02 04:49:41;;;;;;;3.83;3.47;;;17.00;99.90;;;;;;5030593;28;20264;-60
2023/07/02 04:52:08;;;;;;;3.27;3.07;;;17.00;99.90;;;;;;5028399;28;20206;-58
2023/07/02 04:54:35;;;;;;;3.27;3.07;;;17.00;99.90;;;;;;5031887;28;20264;-59
2023/07/02 04:57:02;;;;;;;3.63;3.30;;;17.00;99.90;;;;;;5031956;28;20214;-60
2023/07/02 04:59:29;;;;;;;3.87;3.57;;;17.00;99.90;;;;;;5032233;28;20202;-60
2023/07/02 05:01:56;;;;;;;3.40;3.23;;;17.00;99.90;;;;;;5031919;28;20274;-60
2023/07/02 05:04:24;;;;;;;3.57;3.37;;;17.00;99.90;;;;;;5028692;28;20203;-60
2023/07/02 05:06:51;;;;;;;4.37;4.03;;;17.00;99.90;;;;;;5031675;28;20273;-60
2023/07/02 05:09:18;;;;;;;3.67;3.43;;;17.00;99.90;;;;;;5032041;28;20198;-61
2023/07/02 05:11:45;;;;;;;4.53;4.23;;;17.00;99.90;;;;;;5031926;28;20202;-60
2023/07/02 05:14:12;;;;;;;5.80;4.73;;;16.90;99.90;;;;;;5031403;28;20697;-61
2023/07/02 05:16:39;;;;;;;6.20;5.60;;;16.90;99.90;;;;;;5031661;28;20218;-60
2023/07/02 05:19:06;;;;;;;5.80;5.20;;;16.90;99.90;;;;;;5029540;28;20768;-60
2023/07/02 05:21:34;;;;;;;6.67;6.00;;;17.00;99.90;;;;;;5025606;28;20206;-60
2023/07/02 05:24:01;;;;;;;6.63;6.10;;;16.90;99.90;;;;;;5030736;28;20249;-60
2023/07/02 05:26:28;;;;;;;8.47;5.90;;;16.90;99.90;;;;;;5030711;28;20300;-59
2023/07/02 05:28:55;;;;;;;9.77;7.70;;;16.90;99.90;;;;;;5031367;28;20233;-60
2023/07/02 05:31:22;;;;;;;7.50;6.90;;;16.90;99.90;;;;;;5031247;28;20257;-59
2023/07/02 05:33:48;;;;;;;9.27;8.37;;;16.90;99.90;;;;;;5031247;28;20206;-60
2023/07/02 05:36:16;;;;;;;11.07;9.57;;;16.80;99.90;;;;;;5031504;28;20226;-59
2023/07/02 05:38:44;;;;;;;10.77;9.17;;;16.80;99.90;;;;;;5031636;28;20264;-60
2023/07/02 05:41:11;;;;;;;11.33;9.50;;;16.80;99.90;;;;;;5029925;28;20202;-60
2023/07/02 05:43:38;;;;;;;14.60;12.10;;;16.80;99.90;;;;;;5030980;28;20248;-59
2023/07/02 05:46:05;;;;;;;16.53;12.57;;;16.90;99.90;;;;;;5029790;28;20603;-60
2023/07/02 05:48:32;;;;;;;19.03;12.30;;;16.90;99.90;;;;;;5030783;28;20569;-60
2023/07/02 05:50:59;;;;;;;16.50;12.20;;;16.90;99.90;;;;;;5028467;28;20347;-61
2023/07/02 05:53:26;;;;;;;15.63;12.03;;;17.00;99.90;;;;;;5029123;28;20206;-60
2023/07/02 05:55:54;;;;;;;17.73;12.63;;;17.00;99.90;;;;;;5022342;28;20796;-61
2023/07/02 05:58:21;;;;;;;17.63;12.43;;;17.00;99.90;;;;;;5031274;28;20197;-61
2023/07/02 06:00:49;;;;;;;20.47;13.40;;;17.00;99.90;;;;;;5033104;28;20624;-60
2023/07/02 06:03:20;;;;;;;20.03;12.60;;;16.90;99.90;;;;;;5030700;28;20213;-60
2023/07/02 06:05:48;;;;;;;16.20;12.80;;;16.90;99.90;;;;;;5030822;28;20704;-60
2023/07/02 06:08:15;;;;;;;14.20;11.57;;;16.90;99.90;;;;;;5030651;28;20224;-60
2023/07/02 06:10:42;;;;;;;13.07;11.03;;;17.00;99.90;;;;;;5036767;28;20198;-60
2023/07/02 06:13:11;;;;;;;14.87;11.87;;;17.00;99.90;;;;;;5039383;28;20260;-60
2023/07/02 06:15:38;;;;;;;14.73;11.57;;;17.10;99.90;;;;;;5029340;28;20210;-60
2023/07/02 06:18:05;;;;;;;12.77;10.60;;;17.20;99.90;;;;;;5028080;28;20249;-60
2023/07/02 06:20:32;;;;;;;11.50;10.30;;;17.20;99.90;;;;;;5030388;28;20221;-61
2023/07/02 06:22:59;;;;;;;12.73;10.53;;;17.20;99.90;;;;;;5028088;28;20260;-60
2023/07/02 06:25:26;;;;;;;18.13;11.50;;;17.20;99.90;;;;;;5030552;28;20261;-61
2023/07/02 06:27:55;;;;;;;16.03;11.20;;;17.20;99.90;;;;;;5030311;28;20280;-60
2023/07/02 06:30:24;;;;;;;11.40;9.40;;;17.20;99.90;;;;;;5027301;28;21289;-59
2023/07/02 06:32:51;;;;;;;12.77;10.33;;;17.20;99.90;;;;;;5029980;28;20206;-60
2023/07/02 06:35:18;;;;;;;13.27;9.57;;;17.10;99.90;;;;;;5030352;28;20317;-59
2023/07/02 06:37:46;;;;;;;10.93;9.57;;;17.10;99.90;;;;;;5030304;28;20289;-60
2023/07/02 06:40:13;;;;;;;14.03;10.27;;;17.10;99.90;;;;;;5030553;28;20207;-60
2023/07/02 06:42:41;;;;;;;14.73;10.63;;;17.10;99.90;;;;;;5030258;28;20263;-61
2023/07/02 06:45:08;;;;;;;13.47;10.00;;;17.20;99.90;;;;;;5029642;28;20199;-59
2023/07/02 06:47:37;;;;;;;13.33;9.80;;;17.30;99.90;;;;;;5029827;28;20218;-60
2023/07/02 06:50:04;;;;;;;11.40;10.20;;;17.40;99.90;;;;;;5030180;28;20206;-60
2023/07/02 06:52:36;;;;;;;12.07;9.73;;;17.50;99.90;;;;;;5030729;28;20555;-59
2023/07/02 06:55:04;;;;;;;13.37;10.93;;;17.50;99.90;;;;;;5033760;28;20206;-60
2023/07/02 06:57:31;;;;;;;11.57;9.83;;;17.70;99.90;;;;;;5034154;28;20228;-61
2023/07/02 07:00:00;;;;;;;12.27;9.47;;;17.80;99.90;;;;;;5022508;28;20553;-60
2023/07/02 07:02:30;;;;;;;9.50;8.60;;;17.90;99.90;;;;;;5014050;28;20211;-60
2023/07/02 07:04:59;;;;;;;10.23;9.13;;;18.00;99.90;;;;;;5024516;28;20206;-59
2023/07/02 07:07:27;;;;;;;10.07;8.50;;;18.10;99.90;;;;;;5027607;28;20281;-59
2023/07/02 07:10:01;;;;;;;10.57;9.27;;;18.20;99.90;;;;;;5031500;28;20293;-59
2023/07/02 07:12:28;;;;;;;8.83;7.53;;;18.30;99.90;;;;;;5033513;28;20209;-59
2023/07/02 07:14:56;;;;;;;9.97;9.00;;;18.50;99.90;;;;;;5035462;28;20208;-60
2023/07/02 07:17:24;;;;;;;10.50;9.43;;;18.60;99.90;;;;;;5033009;28;20603;-60
2023/07/02 07:19:51;;;;;;;12.23;9.27;;;18.50;99.90;;;;;;5031743;28;20206;-59
2023/07/02 07:22:19;;;;;;;11.03;9.87;;;18.60;99.90;;;;;;5032444;28;20224;-59
2023/07/02 07:24:46;;;;;;;12.53;9.20;;;18.50;99.90;;;;;;5027045;28;20668;-60
2023/07/02 07:27:13;;;;;;;11.30;8.53;;;18.50;99.90;;;;;;5027706;28;20227;-60
2023/07/02 07:29:41;;;;;;;10.53;8.87;;;18.40;99.90;;;;;;5032967;28;20661;-60
2023/07/02 07:32:08;;;;;;;8.30;7.47;;;18.30;99.90;;;;;;5026304;28;20300;-60
2023/07/02 07:34:35;;;;;;;8.27;7.43;;;18.40;99.90;;;;;;5038080;28;20206;-60
2023/07/02 07:37:02;;;;;;;9.87;7.90;;;18.30;99.90;;;;;;5031370;28;20226;-57
2023/07/02 07:39:30;;;;;;;14.10;8.33;;;18.30;99.90;;;;;;5036202;28;20201;-58
2023/07/02 07:41:58;;;;;;;8.67;7.63;;;18.30;99.90;;;;;;5030446;28;20194;-59
2023/07/02 07:44:28;;;;;;;7.63;6.87;;;18.40;99.90;;;;;;5031724;28;20218;-58
2023/07/02 07:46:56;;;;;;;8.10;7.33;;;18.50;99.90;;;;;;5036953;28;20219;-58
2023/07/02 07:49:24;;;;;;;9.73;7.73;;;18.60;99.90;;;;;;5033017;28;20195;-58
2023/07/02 07:51:52;;;;;;;8.90;7.97;;;18.70;99.90;;;;;;5033218;28;20214;-58
2023/07/02 07:54:19;;;;;;;13.23;8.07;;;18.90;99.90;;;;;;5029840;28;20198;-58
2023/07/02 07:56:47;;;;;;;7.97;7.17;;;19.10;99.90;;;;;;5032028;28;20222;-59
2023/07/02 07:59:14;;;;;;;10.27;7.47;;;19.20;99.90;;;;;;5045425;28;20309;-58
2023/07/02 08:01:41;;;;;;;10.57;8.87;;;19.40;99.90;;;;;;5029219;28;20304;-58
2023/07/02 08:04:08;;;;;;;10.70;8.93;;;19.50;99.90;;;;;;5024747;28;20203;-57
2023/07/02 08:06:35;;;;;;;11.13;9.97;;;19.50;99.90;;;;;;5032926;28;20318;-58
2023/07/02 08:09:03;;;;;;;12.93;8.47;;;19.50;99.90;;;;;;5030832;28;20230;-58
2023/07/02 08:11:30;;;;;;;9.83;8.80;;;19.50;99.90;;;;;;5031740;28;20615;-58
2023/07/02 08:13:58;;;;;;;13.40;9.10;;;19.50;99.90;;;;;;5031750;28;20688;-58
2023/07/02 08:16:25;;;;;;;14.13;10.40;;;19.40;99.90;;;;;;5029367;28;20222;-58
2023/07/02 08:18:52;;;;;;;10.00;8.60;;;19.40;99.90;;;;;;5032970;28;20244;-58
2023/07/02 08:21:19;;;;;;;10.20;9.10;;;19.30;99.90;;;;;;5028307;28;20257;-58
2023/07/02 08:23:46;;;;;;;12.50;9.00;;;19.30;99.90;;;;;;5032467;28;20198;-58
2023/07/02 08:26:14;;;;;;;12.77;9.27;;;19.30;99.90;;;;;;5032190;28;20230;-58
2023/07/02 08:28:41;;;;;;;10.43;8.87;;;19.30;99.90;;;;;;5030105;28;20233;-58
2023/07/02 08:31:09;;;;;;;10.93;9.50;;;19.20;99.90;;;;;;5033925;28;20248;-58
2023/07/02 08:33:36;;;;;;;11.83;9.20;;;19.20;99.90;;;;;;5030138;28;20680;-58
2023/07/02 08:36:03;;;;;;;12.03;9.60;;;19.20;99.90;;;;;;5030619;28;20700;-58
2023/07/02 08:38:30;;;;;;;11.20;8.57;;;19.30;99.90;;;;;;5027659;28;20195;-58
2023/07/02 08:40:57;;;;;;;12.30;9.73;;;19.40;99.90;;;;;;5028781;28;20203;-58
2023/07/02 08:43:27;;;;;;;12.43;8.83;;;19.60;99.90;;;;;;5032092;28;20256;-58
2023/07/02 08:45:54;;;;;;;11.17;8.63;;;19.70;99.90;;;;;;5031212;28;20226;-58
2023/07/02 08:48:24;;;;;;;8.87;8.07;;;19.80;99.90;;;;;;5032156;28;20781;-58
2023/07/02 08:50:51;;;;;;;8.90;7.90;;;19.80;99.90;;;;;;5032209;28;20610;-59
2023/07/02 08:53:18;;;;;;;8.03;7.23;;;19.80;99.90;;;;;;5032076;28;20244;-58
2023/07/02 08:55:45;;;;;;;7.63;6.57;;;19.90;99.90;;;;;;5028968;28;20199;-58
2023/07/02 08:58:12;;;;;;;7.33;6.63;;;20.00;99.90;;;;;;5031769;28;20203;-58
2023/07/02 09:00:39;;;;;;;9.20;8.10;;;20.00;99.90;;;;;;5028800;28;20198;-57
2023/07/02 09:03:14;;;;;;;7.23;6.63;;;19.90;99.90;;;;;;5029358;28;20253;-58
2023/07/02 09:05:52;;;;;;;10.57;7.53;;;19.90;99.90;;;;;;5035771;28;20687;-59
2023/07/02 09:08:29;;;;;;;12.53;8.87;;;19.70;99.90;;;;;;5042856;28;20217;-58
2023/07/02 09:11:06;;;;;;;11.27;9.03;;;19.60;99.90;;;;;;5023165;28;20288;-59
2023/07/02 09:13:33;;;;;;;13.17;10.10;;;19.60;99.90;;;;;;5026242;28;20210;-57
2023/07/02 09:16:00;;;;;;;15.27;11.07;;;19.40;99.90;;;;;;5025951;28;20234;-57
2023/07/02 09:18:27;;;;;;;13.17;10.07;;;19.30;99.90;;;;;;5031651;28;20210;-58
2023/07/02 09:20:56;;;;;;;12.17;9.40;;;19.30;99.90;;;;;;5028890;28;20561;-59
2023/07/02 09:23:23;;;;;;;16.17;10.80;;;19.30;99.90;;;;;;5040484;28;20669;-58
2023/07/02 09:25:51;;;;;;;15.37;11.37;;;19.50;99.90;;;;;;5030836;28;20570;-58
2023/07/02 09:28:20;;;;;;;17.00;11.27;;;19.30;99.90;;;;;;5048615;28;20221;-58
2023/07/02 09:30:51;;;;;;;12.30;10.60;;;19.50;99.90;;;;;;5033750;28;20218;-58
2023/07/02 09:33:18;;;;;;;12.00;10.77;;;19.70;99.90;;;;;;5030862;28;20205;-58
2023/07/02 09:35:46;;;;;;;13.27;10.40;;;19.90;99.90;;;;;;5031005;28;20252;-58
2023/07/02 09:38:14;;;;;;;15.17;11.27;;;20.00;99.90;;;;;;5028284;28;20203;-58
2023/07/02 09:40:47;;;;;;;12.43;10.83;;;20.10;99.90;;;;;;5050002;28;20198;-58
2023/07/02 09:43:15;;;;;;;13.67;10.53;;;20.00;99.90;;;;;;5030766;28;20216;-58
2023/07/02 09:45:45;;;;;;;10.37;9.37;;;20.20;99.90;;;;;;5029532;28;20210;-58
2023/07/02 09:48:15;;;;;;;12.63;9.57;;;20.40;99.90;;;;;;5031199;28;20233;-57
2023/07/02 09:50:43;;;;;;;10.00;8.97;;;20.50;99.90;;;;;;5031315;28;20208;-58
2023/07/02 09:53:10;;;;;;;12.80;9.13;;;20.60;99.90;;;;;;5029186;28;20262;-58
2023/07/02 09:55:39;;;;;;;11.13;9.33;;;20.50;99.90;;;;;;5029774;28;20202;-58
2023/07/02 09:58:07;;;;;;;10.87;8.80;;;20.80;99.90;;;;;;5030729;28;20190;-57
2023/07/02 10:00:34;;;;;;;14.20;9.10;;;20.80;99.90;;;;;;5030083;28;20202;-58
2023/07/02 10:03:01;;;;;;;11.00;8.47;;;21.20;99.90;;;;;;5024772;28;20735;-58
2023/07/02 10:05:29;;;;;;;17.90;11.20;;;21.60;99.90;;;;;;5030705;28;20229;-58
2023/07/02 10:07:57;;;;;;;10.13;9.13;;;21.70;99.90;;;;;;5030400;28;20198;-58
2023/07/02 10:10:28;;;;;;;11.80;8.80;;;22.00;99.90;;;;;;5029327;28;20252;-58
2023/07/02 10:12:57;;;;;;;11.87;10.23;;;21.90;99.90;;;;;;5029812;28;20286;-58
2023/07/02 10:15:29;;;;;;;10.27;8.60;;;22.10;99.90;;;;;;5029937;28;20206;-58
2023/07/02 10:17:57;;;;;;;12.70;10.57;;;22.20;99.90;;;;;;5030546;28;20665;-58
2023/07/02 10:20:33;;;;;;;13.83;9.37;;;22.30;99.90;;;;;;5030347;28;20206;-57
2023/07/02 10:23:01;;;;;;;12.53;8.97;;;22.20;99.90;;;;;;5030377;28;20202;-58
2023/07/02 10:25:30;;;;;;;14.57;9.10;;;21.80;99.90;;;;;;5029689;28;20198;-58
2023/07/02 10:28:00;;;;;;;12.63;10.60;;;21.70;99.90;;;;;;5029711;28;20206;-59
2023/07/02 10:30:34;;;;;;;12.27;10.87;;;21.70;99.90;;;;;;5025263;28;20257;-58
2023/07/02 10:33:12;;;;;;;19.80;11.37;;;21.70;99.90;;;;;;5022508;28;20244;-58
2023/07/02 10:35:41;;;;;;;11.00;9.37;;;21.60;99.90;;;;;;5030514;28;20199;-58
2023/07/02 10:38:08;;;;;;;12.87;10.93;;;21.50;99.90;;;;;;5030215;28;20260;-58
2023/07/02 10:40:35;;;;;;;14.63;12.00;;;21.30;99.90;;;;;;5030863;28;20645;-58
2023/07/02 10:43:03;;;;;;;13.43;11.23;;;21.20;99.90;;;;;;5030112;28;20206;-58
2023/07/02 10:45:34;;;;;;;14.83;12.63;;;21.40;99.90;;;;;;5029084;28;20206;-58
2023/07/02 10:48:04;;;;;;;17.00;13.30;;;21.40;99.90;;;;;;5052423;23;20311;-57
2023/07/02 10:50:32;;;;;;;17.73;12.03;;;21.60;99.90;;;;;;5029054;28;20228;-57
2023/07/02 10:52:59;;;;;;;16.83;13.67;;;21.50;99.90;;;;;;5030291;28;20209;-58
2023/07/02 10:55:27;;;;;;;17.87;12.60;;;21.30;99.90;;;;;;5028905;28;20244;-57
2023/07/02 10:58:06;;;;;;;18.03;13.40;;;21.20;99.90;;;;;;5028925;28;20241;-57
2023/07/02 11:00:34;;;;;;;19.00;14.20;;;21.00;99.90;;;;;;5029315;28;20664;-58
2023/07/02 11:03:01;;;;;;;18.83;14.83;;;20.90;99.90;;;;;;5029236;28;20199;-57
2023/07/02 11:05:28;;;;;;;23.33;14.57;;;20.80;99.90;;;;;;5028333;28;20206;-58
2023/07/02 11:07:57;;;;;;;15.80;12.93;;;21.00;99.90;;;;;;5027454;28;20300;-56
2023/07/02 11:10:25;;;;;;;19.13;15.53;;;21.10;99.90;;;;;;5029449;28;20237;-58
2023/07/02 11:12:52;;;;;;;22.47;12.53;;;21.50;99.90;;;;;;5029636;28;20290;-57
2023/07/02 11:15:21;;;;;;;19.90;13.77;;;21.80;99.90;;;;;;5030600;28;20207;-57
2023/07/02 11:17:48;;;;;;;13.37;11.47;;;21.90;99.90;;;;;;5029698;28;20198;-57
2023/07/02 11:20:15;;;;;;;13.47;11.43;;;22.10;99.90;;;;;;5029485;28;20991;-57
2023/07/02 11:22:43;;;;;;;15.67;12.27;;;22.40;99.90;;;;;;5029694;28;20198;-56
2023/07/02 11:25:12;;;;;;;13.17;11.43;;;22.60;99.90;;;;;;5027919;28;20199;-58
2023/07/02 11:27:40;;;;;;;13.63;11.30;;;22.70;99.90;;;;;;5029736;28;20203;-56
2023/07/02 11:30:08;;;;;;;16.97;13.10;;;22.50;99.90;;;;;;5028785;28;20703;-57
2023/07/02 11:32:49;;;;;;;14.97;11.43;;;22.40;99.90;;;;;;5028993;28;20202;-57
2023/07/02 11:35:17;;;;;;;11.73;10.40;;;22.20;99.90;;;;;;5023361;28;20260;-58
2023/07/02 11:37:44;;;;;;;12.77;10.70;;;22.20;99.90;;;;;;5031707;28;20265;-57
2023/07/02 11:40:12;;;;;;;19.60;11.10;;;22.20;99.90;;;;;;5034338;28;20194;-57
2023/07/02 11:42:39;;;;;;;14.80;12.67;;;22.20;99.90;;;;;;5034346;28;20650;-57
2023/07/02 11:45:07;;;;;;;19.20;13.20;;;22.30;99.90;;;;;;5034062;28;20311;-57
2023/07/02 11:47:35;;;;;;;19.13;11.97;;;22.40;99.90;;;;;;5034072;28;20233;-56
2023/07/02 11:50:03;;;;;;;13.87;10.97;;;22.30;99.90;;;;;;5033987;28;20704;-57
2023/07/02 11:52:31;;;;;;;14.57;10.67;;;22.10;99.90;;;;;;5033068;28;20202;-56
2023/07/02 11:54:58;;;;;;;16.90;11.53;;;22.50;99.90;;;;;;5033531;28;20561;-57
2023/07/02 11:57:25;;;;;;;14.27;10.80;;;22.70;99.90;;;;;;5032818;28;20232;-58
2023/07/02 11:59:52;;;;;;;12.03;10.07;;;22.80;99.90;;;;;;5032560;28;20280;-57
2023/07/02 12:02:19;;;;;;;13.27;10.90;;;23.10;99.90;;;;;;5032453;28;20198;-58
2023/07/02 12:04:46;;;;;;;13.57;11.43;;;23.30;99.90;;;;;;5029801;28;20561;-56
2023/07/02 12:07:15;;;;;;;10.40;9.40;;;23.50;99.90;;;;;;5021699;28;20207;-58
2023/07/02 12:09:42;;;;;;;13.10;9.83;;;23.60;99.90;;;;;;5032510;28;20218;-57
2023/07/02 12:12:09;;;;;;;10.30;9.27;;;23.50;99.90;;;;;;5013621;28;20249;-57
2023/07/02 12:14:36;;;;;;;11.77;9.40;;;23.60;99.90;;;;;;5014120;28;20205;-58
2023/07/02 12:17:04;;;;;;;14.30;9.40;;;23.90;99.90;;;;;;5013704;28;20293;-57
2023/07/02 12:19:31;;;;;;;11.43;9.03;;;24.10;99.90;;;;;;5019992;28;20222;-58
2023/07/02 12:21:58;;;;;;;10.40;8.60;;;24.20;99.90;;;;;;5030726;28;20202;-58
2023/07/02 12:24:26;;;;;;;9.73;8.83;;;24.20;99.90;;;;;;5033721;28;20206;-56
2023/07/02 12:26:53;;;;;;;10.00;9.00;;;24.20;99.90;;;;;;5033732;28;20202;-56
2023/07/02 12:29:20;;;;;;;9.47;8.50;;;24.00;99.90;;;;;;5033823;28;20650;-57
2023/07/02 12:31:47;;;;;;;9.53;7.70;;;23.80;99.90;;;;;;5033896;28;20198;-57
2023/07/02 12:34:14;;;;;;;9.90;8.90;;;23.80;99.90;;;;;;5032666;28;20592;-67
2023/07/02 12:36:42;;;;;;;8.27;7.47;;;24.00;99.90;;;;;;5033065;28;20203;-66
2023/07/02 12:39:09;;;;;;;12.30;8.13;;;23.90;99.90;;;;;;5022626;28;20215;-68
2023/07/02 12:41:37;;;;;;;9.70;8.67;;;23.90;99.90;;;;;;5033718;28;20210;-69
2023/07/02 12:44:04;;;;;;;8.87;6.80;;;23.80;99.90;;;;;;5033070;28;20621;-71